»·PEaware :: ASA73 KLAS-KSNA

ASA73 :: KLAS-KSNA

FLIGHT INFORMATION

Flight Status: Arrived
Operator:
Alaska Airlines
More flights by this operator :: More flights under this callsign
Pilot: Steve F. (26981)
Aircraft: BOEING 737-700
(B737)
More flights by this aircraft type
Origin: KLAS McCarran Intl
United States
Destination: KSNA John Wayne-Orange Co
United States
More flights between these airports :: More routes between these airports
Route: +BOACH8 WHIGG FEYLA DSNEE4
File this flight plan on PilotEdge
Remarks:
Altitude:
(Current/Filed)
28,000ft
Speed:
(Current/Filed)
430kts
Departed: 17-Oct-20 07:52 PM
Arrived: 17-Oct-20 08:32 PM
Distance/Time
Traveled:
196nm/0:39
Distance/Time
To Go:
Arrived

Flight Plot

Page will automatically refresh every two minutes.

Flight plan parsing failed; only flown route is shown


Map Options




Map Legend


Flown Route
Filed Route
Departure Airport
Arrival Airport
Navaid (VOR, NDB)
Fix

Horizontal Profiles

Position Reports

Time Latitude Longitude Heading Altitude Ground
Speed
17-Oct-20 19:32 36.082131 -115.151014 16 2188ft 0kts
17-Oct-20 19:33 36.082131 -115.151014 16 2189ft 0kts
17-Oct-20 19:34 36.082131 -115.151014 16 2189ft 0kts
17-Oct-20 19:35 36.082131 -115.151014 16 2189ft 0kts
17-Oct-20 19:36 36.082131 -115.151014 16 2189ft 0kts
17-Oct-20 19:37 36.082131 -115.151014 16 2189ft 0kts
17-Oct-20 19:38 36.082131 -115.151014 16 2189ft 0kts
17-Oct-20 19:39 36.082131 -115.151014 16 2189ft 0kts
17-Oct-20 19:40 36.082131 -115.151014 16 2189ft 0kts
17-Oct-20 19:41 36.082131 -115.151014 16 2189ft 0kts
17-Oct-20 19:42 36.081721 -115.151565 83 2189ft 2kts
17-Oct-20 19:43 36.081745 -115.151918 105 2189ft 0kts
17-Oct-20 19:44 36.081745 -115.151916 105 2189ft 0kts
17-Oct-20 19:45 36.081613 -115.151583 157 2189ft 5kts
17-Oct-20 19:46 36.081590 -115.153305 268 2189ft 18kts
17-Oct-20 19:47 36.085686 -115.157327 336 2189ft 23kts
17-Oct-20 19:48 36.090885 -115.155796 24 2189ft 22kts
17-Oct-20 19:49 36.096948 -115.152363 23 2189ft 20kts
17-Oct-20 19:50 36.098052 -115.152689 294 2189ft 0kts
17-Oct-20 19:51 36.096984 -115.154487 202 2189ft 46kts
17-Oct-20 19:52 36.061642 -115.175236 204 3416ft 189kts
17-Oct-20 19:53 36.011078 -115.214219 232 5370ft 242kts
17-Oct-20 19:54 35.977670 -115.291371 236 6775ft 268kts
17-Oct-20 19:55 35.908135 -115.309253 172 9489ft 288kts
17-Oct-20 19:56 35.820831 -115.312212 177 11584ft 351kts
17-Oct-20 19:57 35.717417 -115.299560 179 14206ft 384kts
17-Oct-20 19:58 35.626931 -115.362161 229 17270ft 390kts
17-Oct-20 19:59 35.552776 -115.463405 229 19007ft 402kts
17-Oct-20 20:00 35.476620 -115.565809 229 20185ft 413kts
17-Oct-20 20:01 35.397843 -115.672216 228 22472ft 429kts
17-Oct-20 20:02 35.315817 -115.782313 228 24481ft 443kts
17-Oct-20 20:03 35.231787 -115.894648 228 26403ft 453kts
17-Oct-20 20:04 35.143599 -116.006383 226 27984ft 461kts
17-Oct-20 20:05 35.054512 -116.118665 226 28018ft 456kts
17-Oct-20 20:06 34.966061 -116.229556 226 28029ft 454kts
17-Oct-20 20:07 34.878028 -116.339812 228 28028ft 453kts
17-Oct-20 20:08 34.791021 -116.450708 227 27656ft 453kts
17-Oct-20 20:09 34.707760 -116.556313 227 26151ft 414kts
17-Oct-20 20:10 34.620666 -116.646308 219 23920ft 411kts
17-Oct-20 20:11 34.531975 -116.732506 219 21416ft 402kts
17-Oct-20 20:12 34.451611 -116.819751 225 19592ft 378kts
17-Oct-20 20:13 34.377104 -116.907056 224 17506ft 366kts
17-Oct-20 20:14 34.304552 -116.990849 225 15421ft 354kts
17-Oct-20 20:15 34.228512 -117.062107 211 13701ft 335kts
17-Oct-20 20:16 34.151999 -117.114178 207 12798ft 298kts
17-Oct-20 20:17 34.081842 -117.150787 206 12528ft 246kts
17-Oct-20 20:18 34.016520 -117.185490 207 12578ft 298kts
17-Oct-20 20:19 33.955870 -117.252234 232 11589ft 294kts
17-Oct-20 20:20 33.903909 -117.326257 232 10257ft 274kts
17-Oct-20 20:21 33.857206 -117.392204 232 9247ft 253kts
17-Oct-20 20:22 33.819580 -117.460419 267 7908ft 242kts
17-Oct-20 20:23 33.827837 -117.539284 278 6751ft 235kts
17-Oct-20 20:24 33.833402 -117.616440 270 5649ft 229kts
17-Oct-20 20:25 33.833050 -117.691278 270 4544ft 218kts
17-Oct-20 20:26 33.832216 -117.760969 256 3457ft 195kts
17-Oct-20 20:27 33.791234 -117.795659 208 2446ft 178kts
17-Oct-20 20:28 33.748808 -117.822390 208 1583ft 163kts
17-Oct-20 20:29 33.710536 -117.846821 207 770ft 140kts
17-Oct-20 20:31 33.677548 -117.867684 208 65ft 119kts
17-Oct-20 20:32 33.669032 -117.872014 123 64ft 0kts
17-Oct-20 20:33 33.669198 -117.871139 35 64ft 16kts
17-Oct-20 20:34 33.673992 -117.866184 25 64ft 22kts
17-Oct-20 20:35 33.677482 -117.863016 117 64ft 4kts
17-Oct-20 20:36 33.677464 -117.862974 117 63ft 0kts

Navigation Log

Ident Type
Flight plan parsing failed, navigation log unavailable